createdAt,value
2019-03-11T00:00:14.409Z,64.10
2019-03-11T00:02:44.228Z,65.20
2019-03-11T00:05:13.662Z,65.10
2019-03-11T00:07:43.180Z,64.70
2019-03-11T00:10:12.850Z,64.20
2019-03-11T00:12:42.398Z,64.10
2019-03-11T00:15:11.904Z,63.60
2019-03-11T00:17:41.467Z,63.90
2019-03-11T00:20:11.487Z,64.10
2019-03-11T00:22:41.375Z,63.70
2019-03-11T00:25:11.018Z,64.20
2019-03-11T00:27:40.661Z,65.30
2019-03-11T00:30:10.562Z,63.90
2019-03-11T00:32:40.157Z,64.70
2019-03-11T00:35:09.639Z,64.50
2019-03-11T00:37:39.369Z,64.60
2019-03-11T00:40:09.047Z,65.60
2019-03-11T00:42:38.496Z,66.00
2019-03-11T00:45:09.570Z,64.70
2019-03-11T00:47:39.148Z,65.40
2019-03-11T00:50:09.628Z,64.90
2019-03-11T00:52:39.260Z,64.50
2019-03-11T00:55:09.364Z,64.60
2019-03-11T00:57:39.107Z,64.40
2019-03-11T01:00:13.772Z,64.90
2019-03-11T01:02:43.291Z,65.00
2019-03-11T01:05:12.795Z,64.90
2019-03-11T01:07:42.259Z,65.30
2019-03-11T01:10:11.784Z,65.30
2019-03-11T01:12:41.557Z,64.30
2019-03-11T01:15:11.291Z,64.10
2019-03-11T01:17:40.731Z,64.80
2019-03-11T01:20:10.271Z,64.20
2019-03-11T01:22:40.521Z,65.20
2019-03-11T01:25:10.143Z,63.60
2019-03-11T01:27:39.710Z,63.90
2019-03-11T01:30:10.551Z,62.90
2019-03-11T01:32:40.026Z,63.90
2019-03-11T01:35:09.957Z,63.50
2019-03-11T01:37:39.501Z,64.10
2019-03-11T01:40:11.233Z,64.40
2019-03-11T01:42:41.075Z,64.00
2019-03-11T01:45:12.680Z,64.00
2019-03-11T01:47:42.248Z,63.80
2019-03-11T01:50:12.378Z,63.30
2019-03-11T01:52:41.860Z,63.90
2019-03-11T01:55:11.583Z,65.40
2019-03-11T01:57:41.115Z,65.30
2019-03-11T02:00:12.651Z,65.30
2019-03-11T02:02:42.093Z,66.20
2019-03-11T02:05:11.675Z,65.00
2019-03-11T02:07:41.215Z,65.40
2019-03-11T02:10:11.704Z,65.70
2019-03-11T02:12:41.248Z,65.50
2019-03-11T02:15:11.820Z,66.00
2019-03-11T02:17:41.331Z,66.20
2019-03-11T02:20:13.203Z,66.40
2019-03-11T02:22:42.711Z,67.60
2019-03-11T02:25:12.239Z,67.10
2019-03-11T02:27:41.703Z,67.00
2019-03-11T02:30:12.561Z,67.70
2019-03-11T02:32:42.371Z,67.20
2019-03-11T02:35:12.343Z,67.70
2019-03-11T02:37:41.896Z,67.40
2019-03-11T02:40:11.906Z,67.70
2019-03-11T02:42:41.416Z,67.60
2019-03-11T02:45:11.471Z,67.70
2019-03-11T02:47:41.052Z,67.90
2019-03-11T02:50:10.812Z,68.00
2019-03-11T02:52:40.654Z,67.70
2019-03-11T02:55:10.283Z,67.00
2019-03-11T02:57:39.831Z,67.90
2019-03-11T03:00:11.878Z,68.50
2019-03-11T03:02:53.529Z,67.60
2019-03-11T03:05:26.375Z,67.40
2019-03-11T03:07:55.955Z,67.10
2019-03-11T03:10:25.542Z,67.80
2019-03-11T03:12:55.082Z,66.80
2019-03-11T03:15:24.636Z,66.70
2019-03-11T03:17:54.192Z,67.10
2019-03-11T03:20:23.730Z,67.00
2019-03-11T03:22:53.283Z,66.70
2019-03-11T03:25:34.124Z,66.00
2019-03-11T03:27:54.165Z,65.80
2019-03-11T03:30:23.889Z,66.30
2019-03-11T03:32:53.411Z,65.30
2019-03-11T03:35:22.964Z,64.90
2019-03-11T03:37:52.454Z,64.50
2019-03-11T03:40:22.283Z,64.20
2019-03-11T03:42:51.824Z,64.20
2019-03-11T03:45:29.122Z,62.20
2019-03-11T03:47:58.804Z,61.40
2019-03-11T03:50:29.477Z,60.90
2019-03-11T03:52:59.019Z,60.40
2019-03-11T03:55:28.537Z,59.70
2019-03-11T03:57:58.058Z,60.00
2019-03-11T04:00:27.611Z,59.20
2019-03-11T04:02:57.143Z,58.50
2019-03-11T04:05:27.540Z,59.30
2019-03-11T04:07:57.049Z,59.40
2019-03-11T04:10:26.573Z,58.60
2019-03-11T04:12:56.125Z,58.30
2019-03-11T04:15:25.640Z,57.70
2019-03-11T04:17:55.097Z,57.60
2019-03-11T04:20:24.812Z,57.50
2019-03-11T04:22:54.312Z,57.20
2019-03-11T04:25:23.853Z,57.00
2019-03-11T04:27:53.435Z,57.00
2019-03-11T04:30:24.009Z,56.70
2019-03-11T04:32:53.468Z,56.20
2019-03-11T04:35:23.076Z,56.80
2019-03-11T04:37:52.599Z,56.00
2019-03-11T04:40:22.068Z,56.20
2019-03-11T04:42:51.584Z,56.10
2019-03-11T04:45:21.071Z,55.80
2019-03-11T04:47:50.611Z,56.10
2019-03-11T04:50:20.300Z,56.00
2019-03-11T04:52:49.844Z,56.10
2019-03-11T04:55:19.471Z,56.30
2019-03-11T04:57:51.476Z,56.70
2019-03-11T05:00:25.667Z,57.40
2019-03-11T05:02:55.208Z,56.80
2019-03-11T05:05:25.086Z,61.60
2019-03-11T05:07:54.596Z,65.30
2019-03-11T05:10:24.112Z,66.10
2019-03-11T05:12:53.653Z,67.30
2019-03-11T05:15:23.124Z,67.70
2019-03-11T05:17:52.931Z,67.60
2019-03-11T05:20:22.437Z,67.30
2019-03-11T05:22:54.585Z,67.10
2019-03-11T05:25:23.167Z,66.60
2019-03-11T05:27:52.662Z,66.60
2019-03-11T05:30:22.581Z,67.50
2019-03-11T05:32:52.656Z,68.30
2019-03-11T05:35:22.180Z,68.00
2019-03-11T05:37:51.705Z,67.00
2019-03-11T05:40:21.210Z,66.50
2019-03-11T05:42:50.749Z,66.80
2019-03-11T05:45:20.458Z,66.50
2019-03-11T05:47:49.964Z,67.30
2019-03-11T05:50:19.481Z,66.40
2019-03-11T05:52:48.997Z,67.20
2019-03-11T05:55:18.876Z,66.70
2019-03-11T05:57:48.443Z,68.10
2019-03-11T06:00:22.014Z,67.80
2019-03-11T06:02:51.522Z,68.20
2019-03-11T06:05:21.049Z,67.40
2019-03-11T06:07:50.547Z,67.20
2019-03-11T06:10:20.071Z,67.60
2019-03-11T06:12:49.632Z,67.90
2019-03-11T06:15:19.187Z,68.00
2019-03-11T06:17:49.097Z,68.60
2019-03-11T06:20:40.670Z,68.10
2019-03-11T06:23:11.179Z,67.10
2019-03-11T06:25:40.685Z,68.20
2019-03-11T06:28:10.252Z,67.80
2019-03-11T06:30:40.083Z,67.50
2019-03-11T06:33:09.676Z,67.70
2019-03-11T06:35:40.326Z,67.70
2019-03-11T06:38:10.151Z,67.70
2019-03-11T06:40:39.700Z,67.90
2019-03-11T06:43:09.268Z,67.50
2019-03-11T06:45:38.818Z,67.50
2019-03-11T06:48:08.395Z,67.30
2019-03-11T06:50:37.957Z,67.40
2019-03-11T06:53:07.479Z,67.90
2019-03-11T06:55:36.956Z,67.30
2019-03-11T06:58:06.990Z,65.70
2019-03-11T07:00:36.548Z,67.10
2019-03-11T07:03:05.995Z,65.40
2019-03-11T07:05:35.519Z,64.00
2019-03-11T07:08:05.283Z,64.30
2019-03-11T07:10:34.733Z,63.50
2019-03-11T07:13:04.451Z,61.60
2019-03-11T07:15:33.981Z,61.00
2019-03-11T07:18:03.504Z,60.70
2019-03-11T07:20:33.050Z,59.90
2019-03-11T07:23:02.591Z,59.60
2019-03-11T07:25:32.076Z,60.20
2019-03-11T07:28:01.539Z,58.90
2019-03-11T07:30:30.994Z,58.70
2019-03-11T07:33:01.075Z,58.20
2019-03-11T07:35:30.919Z,57.50
2019-03-11T07:38:00.842Z,57.40
2019-03-11T07:40:30.585Z,55.60
2019-03-11T07:43:00.192Z,55.70
2019-03-11T07:45:29.850Z,56.20
2019-03-11T07:47:59.391Z,56.50
2019-03-11T07:50:28.954Z,55.90
2019-03-11T07:52:58.496Z,55.40
2019-03-11T07:55:27.991Z,54.80
2019-03-11T07:57:57.498Z,54.70
2019-03-11T08:00:27.048Z,55.00
2019-03-11T08:02:56.599Z,55.30
2019-03-11T08:05:26.160Z,54.50
2019-03-11T08:07:55.719Z,54.50
2019-03-11T08:10:25.280Z,53.90
2019-03-11T08:12:54.849Z,53.50
2019-03-11T08:15:24.306Z,53.60
2019-03-11T08:17:54.316Z,52.60
2019-03-11T08:20:23.851Z,52.50
2019-03-11T08:22:53.477Z,53.20
2019-03-11T08:25:23.039Z,52.90
2019-03-11T08:27:52.539Z,53.20
2019-03-11T08:30:22.362Z,53.00
2019-03-11T08:32:51.964Z,53.90
2019-03-11T08:35:21.591Z,52.20
2019-03-11T08:37:51.514Z,52.20
2019-03-11T08:40:21.201Z,52.60
2019-03-11T08:42:50.899Z,52.60
2019-03-11T08:45:20.818Z,52.80
2019-03-11T08:47:50.354Z,52.60
2019-03-11T08:50:19.911Z,53.60
2019-03-11T08:52:49.415Z,53.20
2019-03-11T08:55:19.274Z,52.50
2019-03-11T08:57:48.841Z,52.40
2019-03-11T09:00:18.950Z,52.80
2019-03-11T09:02:48.427Z,52.70
2019-03-11T09:05:17.991Z,52.70
2019-03-11T09:07:47.503Z,54.60
2019-03-11T09:10:17.157Z,56.00
2019-03-11T09:12:46.690Z,57.80
2019-03-11T09:15:16.551Z,61.50
2019-03-11T09:17:46.150Z,66.20
2019-03-11T09:20:15.994Z,69.00
2019-03-11T09:22:45.607Z,71.50
2019-03-11T09:25:15.332Z,72.30
2019-03-11T09:27:44.825Z,73.70
2019-03-11T09:30:16.680Z,73.80
2019-03-11T09:32:46.218Z,74.50
2019-03-11T09:35:15.786Z,73.50
2019-03-11T09:37:45.322Z,74.20
2019-03-11T09:40:15.099Z,72.40
2019-03-11T09:42:44.699Z,72.20
2019-03-11T09:45:15.069Z,70.90
2019-03-11T09:47:44.612Z,69.90
2019-03-11T09:50:14.254Z,68.20
2019-03-11T09:52:43.817Z,67.40
2019-03-11T09:55:13.880Z,67.60
2019-03-11T09:57:43.499Z,66.60
2019-03-11T10:00:15.890Z,66.80
2019-03-11T10:02:52.200Z,63.70
2019-03-11T10:05:16.755Z,62.50
2019-03-11T10:07:46.345Z,61.00
2019-03-11T10:10:16.856Z,59.90
2019-03-11T10:12:46.402Z,59.40
2019-03-11T10:15:16.464Z,62.10
2019-03-11T10:17:45.933Z,59.40
2019-03-11T10:20:15.688Z,58.20
2019-03-11T10:22:45.684Z,59.20
2019-03-11T10:25:16.123Z,58.00
2019-03-11T10:27:45.595Z,57.00
2019-03-11T10:30:16.809Z,56.70
2019-03-11T10:32:46.400Z,58.20
2019-03-11T10:35:30.640Z,59.00
2019-03-11T10:37:47.784Z,60.40
2019-03-11T10:40:18.961Z,59.90
2019-03-11T10:42:48.524Z,59.40
2019-03-11T10:45:26.567Z,61.80
2019-03-11T10:47:49.386Z,60.40
2019-03-11T10:50:19.042Z,59.10
2019-03-11T10:52:48.516Z,59.60
2019-03-11T10:55:18.163Z,59.30
2019-03-11T10:57:47.604Z,59.30
2019-03-11T11:00:19.909Z,59.10
2019-03-11T11:02:49.427Z,57.10
2019-03-11T11:05:19.135Z,57.50
2019-03-11T11:07:48.689Z,57.00
2019-03-11T11:10:18.479Z,56.00
2019-03-11T11:12:48.263Z,55.60
2019-03-11T11:15:19.433Z,55.70
2019-03-11T11:17:48.974Z,54.60
2019-03-11T11:20:18.698Z,54.00
2019-03-11T11:22:48.679Z,53.60
2019-03-11T11:25:18.892Z,51.20
2019-03-11T11:27:48.427Z,50.70
2019-03-11T11:30:19.750Z,50.70
2019-03-11T11:32:49.298Z,50.00
2019-03-11T11:35:19.103Z,50.50
2019-03-11T11:37:48.782Z,49.80
2019-03-11T11:40:20.763Z,50.20
2019-03-11T11:42:50.329Z,50.60
2019-03-11T11:45:20.195Z,49.70
2019-03-11T11:47:49.770Z,49.10
2019-03-11T11:50:19.898Z,48.70
2019-03-11T11:52:49.426Z,49.50
2019-03-11T11:55:19.212Z,50.10
2019-03-11T11:57:48.938Z,50.30
2019-03-11T12:00:22.440Z,50.80
2019-03-11T12:02:51.892Z,50.70
2019-03-11T12:05:21.444Z,51.50
2019-03-11T12:07:51.211Z,50.20
2019-03-11T12:10:21.137Z,49.90
2019-03-11T12:12:50.596Z,49.60
2019-03-11T12:15:20.655Z,49.20
2019-03-11T12:17:50.453Z,50.20
2019-03-11T12:20:21.855Z,49.80
2019-03-11T12:22:51.390Z,49.20
2019-03-11T12:25:21.081Z,48.10
2019-03-11T12:27:54.004Z,47.30
2019-03-11T12:30:23.601Z,47.70
2019-03-11T12:32:53.108Z,46.80
2019-03-11T12:35:22.643Z,46.60
2019-03-11T12:37:52.148Z,45.40
2019-03-11T12:40:22.021Z,45.50
2019-03-11T12:42:51.781Z,45.90
2019-03-11T12:45:21.296Z,46.30
2019-03-11T12:47:51.298Z,46.00
2019-03-11T12:50:21.452Z,45.90
2019-03-11T12:52:51.010Z,44.60
2019-03-11T12:55:21.546Z,44.70
2019-03-11T12:57:51.395Z,44.50
2019-03-11T13:00:20.948Z,44.80
2019-03-11T13:02:50.395Z,46.20
2019-03-11T13:05:19.987Z,46.50
2019-03-11T13:07:49.681Z,47.00
2019-03-11T13:10:20.152Z,47.60
2019-03-11T13:12:49.832Z,48.50
2019-03-11T13:15:19.608Z,49.90
2019-03-11T13:17:49.260Z,51.00
2019-03-11T13:20:21.818Z,51.70
2019-03-11T13:22:51.631Z,51.70
2019-03-11T13:25:21.161Z,51.20
2019-03-11T13:27:50.794Z,50.50
2019-03-11T13:30:20.348Z,49.60
2019-03-11T13:32:49.963Z,48.90
2019-03-11T13:35:19.472Z,47.50
2019-03-11T13:37:49.326Z,47.10
2019-03-11T13:40:18.901Z,46.70
2019-03-11T13:42:48.419Z,46.00
2019-03-11T13:45:17.912Z,44.70
2019-03-11T13:47:47.516Z,44.40
2019-03-11T13:50:17.140Z,44.40
2019-03-11T13:52:46.861Z,45.10
2019-03-11T13:55:16.903Z,45.80
2019-03-11T13:57:46.517Z,45.50
2019-03-11T14:00:16.433Z,47.00
2019-03-11T14:02:45.955Z,47.40
2019-03-11T14:05:15.501Z,47.90
2019-03-11T14:07:45.008Z,47.90
2019-03-11T14:10:15.032Z,48.00
2019-03-11T14:12:44.892Z,48.40
2019-03-11T14:15:14.518Z,48.90
2019-03-11T14:17:44.080Z,48.30
2019-03-11T14:20:13.759Z,48.50
2019-03-11T14:22:43.460Z,48.30
2019-03-11T14:25:13.273Z,48.40
2019-03-11T14:27:42.865Z,48.30
2019-03-11T14:30:12.983Z,48.60
2019-03-11T14:32:42.492Z,47.90
2019-03-11T14:35:12.488Z,46.80
2019-03-11T14:37:42.045Z,46.40
2019-03-11T14:40:11.702Z,46.40
2019-03-11T14:42:41.226Z,46.80
2019-03-11T14:45:12.523Z,47.30
2019-03-11T14:47:41.973Z,44.40
2019-03-11T14:50:12.228Z,40.70
2019-03-11T14:52:42.027Z,36.30
2019-03-11T14:55:11.704Z,35.50
2019-03-11T14:57:41.243Z,34.20
2019-03-11T15:00:13.396Z,34.90
2019-03-11T15:02:42.967Z,35.10
2019-03-11T15:05:12.772Z,33.10
2019-03-11T15:07:42.324Z,31.70
2019-03-11T15:10:12.492Z,30.00
2019-03-11T15:12:41.962Z,29.20
2019-03-11T15:15:13.352Z,29.20
2019-03-11T15:17:42.952Z,28.30
2019-03-11T15:20:12.908Z,26.70
2019-03-11T15:22:42.438Z,26.80
2019-03-11T15:25:12.285Z,25.90
2019-03-11T15:27:41.841Z,25.50
2019-03-11T15:30:13.663Z,24.80
2019-03-11T15:32:43.215Z,24.80
2019-03-11T15:35:12.857Z,24.70
2019-03-11T15:37:42.311Z,24.20
2019-03-11T15:40:12.548Z,24.20
2019-03-11T15:42:42.009Z,24.80
2019-03-11T15:45:13.113Z,24.10
2019-03-11T15:47:42.631Z,24.60
2019-03-11T15:50:15.477Z,24.60
2019-03-11T15:52:44.964Z,24.20
2019-03-11T15:55:15.092Z,24.10
2019-03-11T15:57:44.703Z,25.30
2019-03-11T16:00:20.567Z,25.00
2019-03-11T16:02:50.409Z,25.40
2019-03-11T16:05:20.467Z,26.80
2019-03-11T16:07:50.406Z,27.30
2019-03-11T16:10:20.665Z,26.30
2019-03-11T16:12:50.684Z,26.70
2019-03-11T16:15:20.168Z,28.70
2019-03-11T16:17:49.757Z,30.70
2019-03-11T16:20:19.513Z,33.30
2019-03-11T16:22:49.213Z,34.70
2019-03-11T16:25:18.905Z,36.50
2019-03-11T16:27:48.545Z,37.60
2019-03-11T16:30:19.410Z,38.50
2019-03-11T16:32:58.254Z,39.50
2019-03-11T16:35:20.983Z,40.20
2019-03-11T16:37:51.374Z,42.30
2019-03-11T16:40:20.910Z,43.00
2019-03-11T16:42:51.556Z,43.80
2019-03-11T16:45:21.271Z,44.20
2019-03-11T16:47:51.211Z,44.50
2019-03-11T16:50:20.776Z,44.60
2019-03-11T16:52:50.347Z,45.30
2019-03-11T16:55:21.869Z,45.40
2019-03-11T16:57:53.535Z,45.90
2019-03-11T17:00:26.354Z,46.50
2019-03-11T17:02:55.971Z,46.40
2019-03-11T17:05:25.492Z,47.00
2019-03-11T17:07:54.983Z,47.10
2019-03-11T17:10:24.947Z,47.30
2019-03-11T17:12:54.547Z,46.70
2019-03-11T17:15:24.324Z,46.40
2019-03-11T17:17:53.764Z,47.10
2019-03-11T17:20:23.309Z,47.20
2019-03-11T17:22:52.851Z,47.00
2019-03-11T17:25:22.531Z,46.70
2019-03-11T17:27:52.017Z,47.20
2019-03-11T17:30:21.649Z,47.10
2019-03-11T17:32:51.164Z,47.30
2019-03-11T17:35:20.686Z,47.80
2019-03-11T17:37:50.307Z,47.80
2019-03-11T17:40:20.139Z,48.30
2019-03-11T17:42:49.842Z,49.50
2019-03-11T17:45:19.496Z,49.40
2019-03-11T17:47:49.025Z,49.70
2019-03-11T17:50:18.683Z,49.70
2019-03-11T17:52:48.735Z,50.20
2019-03-11T17:55:18.436Z,50.20
2019-03-11T17:57:48.097Z,50.60
2019-03-11T18:00:21.532Z,50.60
2019-03-11T18:02:51.041Z,51.10
2019-03-11T18:05:20.736Z,51.20
2019-03-11T18:07:50.376Z,51.50
2019-03-11T18:10:19.829Z,51.70
2019-03-11T18:12:49.454Z,52.10
2019-03-11T18:15:18.987Z,52.40
2019-03-11T18:17:48.572Z,52.60
2019-03-11T18:20:18.395Z,53.20
2019-03-11T18:22:48.267Z,53.20
2019-03-11T18:25:17.796Z,53.30
2019-03-11T18:27:47.334Z,53.40
2019-03-11T18:30:19.084Z,53.60
2019-03-11T18:32:48.930Z,53.80
2019-03-11T18:35:18.810Z,53.90
2019-03-11T18:37:48.402Z,53.90
2019-03-11T18:40:18.036Z,54.40
2019-03-11T18:42:47.720Z,54.40
2019-03-11T18:45:17.562Z,54.80
2019-03-11T18:47:47.186Z,55.40
2019-03-11T18:50:16.879Z,55.20
2019-03-11T18:52:46.528Z,55.50
2019-03-11T18:55:16.072Z,55.50
2019-03-11T18:57:45.629Z,55.30
2019-03-11T19:00:16.958Z,55.60
2019-03-11T19:02:46.588Z,55.80
2019-03-11T19:05:16.474Z,56.00
2019-03-11T19:07:46.021Z,56.30
2019-03-11T19:10:16.558Z,56.30
2019-03-11T19:12:46.352Z,56.50
2019-03-11T19:15:16.693Z,56.50
2019-03-11T19:17:46.802Z,57.00
2019-03-11T19:20:17.726Z,57.00
2019-03-11T19:22:47.328Z,57.10
2019-03-11T19:25:16.842Z,57.00
2019-03-11T19:27:46.657Z,56.80
2019-03-11T19:30:17.879Z,56.80
2019-03-11T19:32:47.382Z,57.00
2019-03-11T19:35:17.279Z,57.00
2019-03-11T19:37:47.893Z,57.80
2019-03-11T19:40:20.932Z,57.40
2019-03-11T19:42:57.633Z,57.10
2019-03-11T19:45:27.163Z,57.40
2019-03-11T19:47:56.717Z,58.00
2019-03-11T19:50:27.016Z,57.80
2019-03-11T19:52:59.085Z,57.70
2019-03-11T19:55:28.281Z,57.70
2019-03-11T19:57:57.920Z,58.10
2019-03-11T20:00:27.622Z,58.20
2019-03-11T20:02:57.231Z,58.20
2019-03-11T20:05:26.758Z,58.70
2019-03-11T20:07:56.594Z,58.40
2019-03-11T20:10:26.915Z,58.60
2019-03-11T20:12:56.552Z,58.90
2019-03-11T20:15:26.213Z,58.70
2019-03-11T20:17:55.828Z,58.80
2019-03-11T20:20:25.397Z,58.60
2019-03-11T20:22:54.973Z,58.70
2019-03-11T20:25:26.055Z,59.10
2019-03-11T20:27:55.703Z,59.00
2019-03-11T20:30:25.356Z,59.30
2019-03-11T20:32:54.842Z,59.20
2019-03-11T20:35:24.903Z,59.10
2019-03-11T20:37:54.609Z,59.20
2019-03-11T20:40:24.352Z,59.50
2019-03-11T20:42:53.993Z,59.60
2019-03-11T20:45:23.926Z,59.70
2019-03-11T20:47:53.553Z,60.00
2019-03-11T20:50:23.190Z,59.90
2019-03-11T20:52:52.725Z,59.80
2019-03-11T20:55:22.360Z,59.70
2019-03-11T20:57:51.966Z,59.80
2019-03-11T21:00:21.597Z,59.30
2019-03-11T21:02:51.596Z,59.50
2019-03-11T21:05:24.159Z,58.80
2019-03-11T21:07:53.684Z,58.70
2019-03-11T21:10:23.236Z,58.90
2019-03-11T21:12:52.798Z,58.30
2019-03-11T21:15:22.388Z,58.80
2019-03-11T21:17:51.905Z,58.80
2019-03-11T21:20:21.727Z,58.50
2019-03-11T21:22:51.286Z,58.70
2019-03-11T21:25:23.075Z,58.60
2019-03-11T21:27:52.988Z,58.50
2019-03-11T21:30:22.656Z,58.90
2019-03-11T21:32:52.306Z,58.50
2019-03-11T21:35:21.906Z,58.50
2019-03-11T21:37:51.484Z,59.00
2019-03-11T21:40:21.307Z,58.60
2019-03-11T21:42:51.217Z,59.00
2019-03-11T21:45:33.054Z,59.10
2019-03-11T21:47:52.786Z,58.70
2019-03-11T21:50:22.846Z,58.80
2019-03-11T21:52:52.574Z,58.80
2019-03-11T21:55:22.113Z,59.20
2019-03-11T21:57:51.664Z,59.00
2019-03-11T22:00:32.796Z,59.30
2019-03-11T22:02:54.089Z,59.50
2019-03-11T22:05:23.527Z,60.20
2019-03-11T22:07:53.085Z,60.00
2019-03-11T22:10:22.719Z,60.30
2019-03-11T22:12:52.243Z,59.90
2019-03-11T22:15:21.706Z,60.20
2019-03-11T22:17:51.243Z,60.30
2019-03-11T22:20:20.753Z,60.60
2019-03-11T22:22:50.424Z,60.20
2019-03-11T22:25:19.979Z,60.30
2019-03-11T22:27:49.541Z,60.00
2019-03-11T22:30:19.863Z,60.00
2019-03-11T22:32:50.126Z,60.10
2019-03-11T22:35:20.743Z,60.30
2019-03-11T22:37:50.332Z,60.30
2019-03-11T22:40:20.028Z,60.80
2019-03-11T22:42:49.586Z,60.30
2019-03-11T22:45:20.677Z,60.10
2019-03-11T22:47:50.598Z,60.30
2019-03-11T22:50:20.243Z,60.10
2019-03-11T22:52:49.966Z,60.60
2019-03-11T22:55:20.253Z,60.70
2019-03-11T22:57:50.184Z,60.30
2019-03-11T23:00:32.378Z,60.10
2019-03-11T23:03:06.367Z,60.10
2019-03-11T23:05:34.784Z,60.00
2019-03-11T23:08:04.565Z,60.50
2019-03-11T23:10:34.146Z,60.10
2019-03-11T23:13:04.048Z,60.00
2019-03-11T23:15:33.951Z,60.00
2019-03-11T23:18:03.546Z,60.00
2019-03-11T23:20:33.109Z,59.90
2019-03-11T23:23:02.669Z,59.60
2019-03-11T23:25:32.485Z,59.70
2019-03-11T23:28:02.114Z,59.50
2019-03-11T23:30:31.881Z,59.10
2019-03-11T23:33:01.655Z,59.30
2019-03-11T23:35:31.268Z,59.30
2019-03-11T23:38:01.223Z,59.30
2019-03-11T23:40:30.743Z,59.10
2019-03-11T23:43:00.449Z,59.30
2019-03-11T23:45:30.020Z,59.40
2019-03-11T23:47:59.712Z,59.30
2019-03-11T23:50:29.524Z,59.20
2019-03-11T23:52:59.371Z,59.40
2019-03-11T23:55:29.394Z,59.30
2019-03-11T23:57:59.001Z,59.40
